Terminal Aerodrome Forecast
Issued by NWS Grand Forks, ND

Home | Current Version | Previous Version | Text Only | Print | Product List | Glossary On
Versions: 1 2 3 4 5 6 7 8 9 10 11 12 13 14 15 16 17 18 19 20 21
000
FTUS43 KFGF 210500
TAFGFK
TAF
KGFK 210520Z 2106/2206 34008KT P6SM FEW060 BKN070
     FM211200 32008KT P6SM BKN025
     FM211700 34008KT P6SM BKN050
     FM220100 VRB04KT P6SM FEW250=

USA.gov is the U.S. government's official web portal to all federal, state and local government web resources and services.